createdAt,value
2023-01-15T00:02:18.284Z,4.86
2023-01-15T00:04:45.331Z,4.86
2023-01-15T00:07:12.268Z,4.88
2023-01-15T00:09:39.128Z,4.90
2023-01-15T00:12:07.225Z,4.88
2023-01-15T00:14:34.313Z,4.86
2023-01-15T00:17:01.693Z,4.83
2023-01-15T00:19:28.964Z,4.82
2023-01-15T00:21:56.050Z,4.81
2023-01-15T00:24:41.250Z,4.75
2023-01-15T00:27:29.932Z,4.73
2023-01-15T00:29:56.853Z,4.78
2023-01-15T00:32:27.283Z,4.71
2023-01-15T00:34:55.477Z,4.81
2023-01-15T00:37:22.417Z,4.85
2023-01-15T00:39:49.338Z,4.79
2023-01-15T00:42:17.855Z,4.84
2023-01-15T00:44:46.638Z,4.79
2023-01-15T00:47:15.239Z,4.81
2023-01-15T00:49:43.196Z,4.76
2023-01-15T00:52:11.125Z,4.74
2023-01-15T00:54:38.312Z,4.76
2023-01-15T00:57:05.357Z,4.69
2023-01-15T00:59:32.413Z,4.69
2023-01-15T01:01:59.644Z,4.57
2023-01-15T01:04:26.595Z,4.69
2023-01-15T01:06:53.515Z,4.59
2023-01-15T01:09:20.470Z,4.55
2023-01-15T01:11:49.655Z,4.63
2023-01-15T01:14:16.472Z,4.61
2023-01-15T01:16:43.480Z,4.57
2023-01-15T01:19:19.668Z,4.66
2023-01-15T01:21:47.906Z,4.67
2023-01-15T01:24:17.453Z,4.58
2023-01-15T01:26:45.444Z,4.73
2023-01-15T01:29:14.267Z,4.69
2023-01-15T01:31:41.332Z,4.65
2023-01-15T01:34:10.426Z,4.70
2023-01-15T01:36:40.044Z,4.78
2023-01-15T01:39:10.381Z,4.60
2023-01-15T01:41:37.521Z,4.73
2023-01-15T01:44:33.147Z,4.73
2023-01-15T01:47:11.719Z,4.73
2023-01-15T01:49:40.651Z,4.76
2023-01-15T01:52:15.704Z,4.75
2023-01-15T01:54:46.559Z,4.64
2023-01-15T01:57:15.335Z,4.75
2023-01-15T01:59:42.635Z,4.73
2023-01-15T02:02:09.778Z,4.65
2023-01-15T02:04:37.844Z,4.63
2023-01-15T02:07:05.243Z,4.66
2023-01-15T02:09:32.489Z,4.71
2023-01-15T02:12:20.013Z,4.63
2023-01-15T02:15:03.510Z,4.61
2023-01-15T02:17:43.362Z,4.56
2023-01-15T02:20:42.325Z,4.66
2023-01-15T02:23:48.536Z,4.70
2023-01-15T02:26:30.621Z,4.66
2023-01-15T02:28:59.847Z,4.67
2023-01-15T02:31:33.626Z,4.74
2023-01-15T02:34:10.764Z,4.72
2023-01-15T02:36:44.188Z,4.62
2023-01-15T02:39:23.731Z,4.64
2023-01-15T02:41:54.480Z,4.47
2023-01-15T02:44:27.160Z,4.71
2023-01-15T02:46:59.775Z,4.15
2023-01-15T02:49:29.515Z,4.69
2023-01-15T02:52:15.358Z,4.65
2023-01-15T02:55:06.356Z,4.60
2023-01-15T02:57:37.315Z,4.63
2023-01-15T03:00:09.300Z,4.56
2023-01-15T03:02:42.993Z,4.62
2023-01-15T03:05:18.588Z,4.63
2023-01-15T03:07:49.734Z,4.57
2023-01-15T03:10:17.467Z,4.67
2023-01-15T03:13:04.259Z,4.56
2023-01-15T03:16:11.105Z,4.61
2023-01-15T03:18:55.708Z,4.58
2023-01-15T03:21:55.737Z,4.64
2023-01-15T03:24:29.345Z,4.63
2023-01-15T03:26:56.714Z,4.61
2023-01-15T03:29:28.243Z,4.51
2023-01-15T03:31:55.384Z,4.54
2023-01-15T03:34:22.582Z,4.59
2023-01-15T03:36:49.811Z,4.62
2023-01-15T03:39:18.946Z,4.61
2023-01-15T03:42:02.934Z,4.58
2023-01-15T03:44:45.532Z,4.48
2023-01-15T03:47:18.482Z,4.62
2023-01-15T03:49:59.793Z,4.66
2023-01-15T03:52:48.441Z,4.75
2023-01-15T03:55:26.215Z,4.69
2023-01-15T03:58:07.661Z,4.67
2023-01-15T04:00:44.283Z,4.57
2023-01-15T04:03:14.348Z,3.90
2023-01-15T04:05:42.519Z,4.40
2023-01-15T04:08:11.523Z,4.31
2023-01-15T04:10:38.426Z,4.34
2023-01-15T04:13:09.423Z,4.23
2023-01-15T04:15:36.561Z,4.19
2023-01-15T04:18:03.513Z,4.12
2023-01-15T04:20:31.193Z,4.00
2023-01-15T04:22:58.219Z,3.99
2023-01-15T04:25:25.105Z,3.84
2023-01-15T04:27:55.180Z,3.84
2023-01-15T04:30:22.890Z,3.80
2023-01-15T04:32:51.041Z,3.73
2023-01-15T04:35:19.657Z,3.14
2023-01-15T04:37:47.291Z,3.71
2023-01-15T04:40:34.561Z,3.65
2023-01-15T04:43:20.073Z,3.52
2023-01-15T04:45:47.116Z,3.44
2023-01-15T04:48:13.994Z,3.54
2023-01-15T04:50:41.002Z,3.49
2023-01-15T04:53:07.881Z,3.50
2023-01-15T04:55:34.853Z,3.50
2023-01-15T04:58:01.772Z,3.52
2023-01-15T05:00:28.715Z,3.48
2023-01-15T05:02:55.744Z,3.45
2023-01-15T05:05:22.658Z,3.54
2023-01-15T05:07:50.981Z,3.55
2023-01-15T05:10:18.011Z,3.46
2023-01-15T05:12:44.976Z,3.51
2023-01-15T05:15:11.876Z,3.43
2023-01-15T05:17:38.831Z,3.32
2023-01-15T05:20:06.347Z,3.49
2023-01-15T05:22:35.470Z,3.47
2023-01-15T05:25:02.462Z,3.52
2023-01-15T05:27:29.490Z,3.51
2023-01-15T05:29:56.242Z,3.53
2023-01-15T05:32:23.142Z,3.52
2023-01-15T05:34:50.038Z,3.52
2023-01-15T05:37:17.035Z,3.48
2023-01-15T05:39:43.931Z,3.53
2023-01-15T05:42:10.839Z,3.51
2023-01-15T05:44:37.923Z,3.62
2023-01-15T05:47:07.631Z,3.59
2023-01-15T05:49:34.930Z,3.59
2023-01-15T05:52:02.153Z,3.53
2023-01-15T05:54:32.079Z,3.45
2023-01-15T05:57:02.593Z,3.33
2023-01-15T05:59:31.133Z,3.20
2023-01-15T06:01:58.479Z,3.13
2023-01-15T06:04:26.648Z,3.17
2023-01-15T06:06:56.818Z,3.05
2023-01-15T06:09:25.644Z,3.14
2023-01-15T06:11:53.904Z,3.05
2023-01-15T06:14:20.915Z,2.96
2023-01-15T06:16:48.002Z,3.02
2023-01-15T06:19:15.231Z,2.98
2023-01-15T06:21:42.452Z,3.00
2023-01-15T06:24:10.203Z,2.98
2023-01-15T06:26:38.367Z,2.98
2023-01-15T06:29:05.398Z,3.05
2023-01-15T06:31:32.726Z,2.94
2023-01-15T06:33:59.735Z,3.01
2023-01-15T06:36:27.895Z,3.13
2023-01-15T06:38:55.399Z,3.07
2023-01-15T06:41:42.734Z,3.22
2023-01-15T06:44:33.763Z,3.15
2023-01-15T06:47:21.162Z,3.16
2023-01-15T06:49:53.487Z,3.11
2023-01-15T06:52:21.034Z,3.25
2023-01-15T06:54:48.027Z,3.32
2023-01-15T06:57:14.901Z,3.38
2023-01-15T06:59:41.876Z,3.49
2023-01-15T07:02:11.239Z,3.44
2023-01-15T07:04:38.138Z,3.34
2023-01-15T07:07:05.290Z,3.43
2023-01-15T07:09:32.131Z,3.36
2023-01-15T07:11:59.131Z,3.43
2023-01-15T07:14:28.306Z,3.26
2023-01-15T07:16:55.992Z,3.43
2023-01-15T07:19:22.983Z,3.56
2023-01-15T07:22:03.540Z,3.65
2023-01-15T07:24:33.657Z,3.69
2023-01-15T07:27:03.219Z,3.65
2023-01-15T07:29:31.529Z,3.79
2023-01-15T07:31:58.753Z,3.88
2023-01-15T07:34:25.734Z,4.00
2023-01-15T07:36:52.701Z,4.08
2023-01-15T07:39:19.728Z,4.24
2023-01-15T07:42:05.676Z,4.35
2023-01-15T07:44:53.444Z,4.48
2023-01-15T07:47:44.993Z,4.70
2023-01-15T07:50:16.641Z,4.87
2023-01-15T07:52:43.823Z,5.03
2023-01-15T07:55:12.871Z,5.23
2023-01-15T07:57:41.595Z,5.49
2023-01-15T08:00:12.347Z,5.58
2023-01-15T08:02:40.287Z,5.67
2023-01-15T08:05:08.085Z,5.78
2023-01-15T08:07:42.303Z,5.84
2023-01-15T08:10:11.715Z,5.84
2023-01-15T08:12:57.907Z,5.78
2023-01-15T08:15:25.560Z,5.85
2023-01-15T08:17:53.074Z,5.90
2023-01-15T08:20:22.421Z,5.96
2023-01-15T08:22:49.870Z,5.97
2023-01-15T08:25:21.921Z,6.06
2023-01-15T08:27:49.363Z,6.06
2023-01-15T08:30:23.473Z,6.02
2023-01-15T08:32:50.638Z,6.00
2023-01-15T08:35:17.647Z,6.00
2023-01-15T08:37:44.543Z,6.07
2023-01-15T08:40:12.513Z,6.30
2023-01-15T08:42:40.115Z,6.25
2023-01-15T08:45:08.025Z,6.33
2023-01-15T08:47:35.027Z,6.38
2023-01-15T08:50:02.168Z,6.32
2023-01-15T08:52:29.131Z,6.44
2023-01-15T08:54:56.190Z,6.37
2023-01-15T08:57:23.171Z,6.37
2023-01-15T08:59:50.024Z,6.51
2023-01-15T09:02:17.891Z,6.54
2023-01-15T09:04:45.048Z,6.62
2023-01-15T09:07:13.031Z,6.68
2023-01-15T09:09:40.032Z,6.69
2023-01-15T09:12:12.120Z,6.77
2023-01-15T09:14:58.061Z,6.78
2023-01-15T09:17:26.089Z,6.91
2023-01-15T09:19:53.040Z,6.89
2023-01-15T09:22:19.908Z,7.01
2023-01-15T09:24:47.299Z,7.08
2023-01-15T09:27:14.415Z,7.22
2023-01-15T09:29:41.545Z,7.29
2023-01-15T09:32:11.817Z,7.38
2023-01-15T09:34:38.939Z,7.43
2023-01-15T09:37:05.915Z,7.42
2023-01-15T09:39:32.934Z,7.35
2023-01-15T09:42:21.707Z,7.52
2023-01-15T09:45:30.542Z,7.62
2023-01-15T09:48:13.367Z,7.68
2023-01-15T09:50:40.405Z,7.69
2023-01-15T09:53:28.540Z,7.77
2023-01-15T09:55:55.992Z,7.71
2023-01-15T09:58:37.555Z,7.88
2023-01-15T10:01:05.605Z,7.87
2023-01-15T10:03:48.157Z,7.87
2023-01-15T10:06:42.147Z,7.87
2023-01-15T10:09:18.435Z,7.86
2023-01-15T10:12:14.909Z,7.93
2023-01-15T10:15:02.610Z,8.03
2023-01-15T10:18:02.608Z,8.18
2023-01-15T10:20:43.471Z,8.27
2023-01-15T10:23:13.361Z,8.35
2023-01-15T10:25:50.764Z,8.42
2023-01-15T10:28:29.636Z,8.52
2023-01-15T10:31:06.850Z,8.61
2023-01-15T10:33:46.773Z,8.38
2023-01-15T10:36:49.367Z,8.63
2023-01-15T10:39:44.841Z,8.63
2023-01-15T10:42:27.313Z,8.74
2023-01-15T10:45:12.513Z,8.79
2023-01-15T10:47:41.195Z,8.75
2023-01-15T10:50:17.405Z,8.87
2023-01-15T10:52:51.092Z,8.84
2023-01-15T10:55:27.565Z,8.94
2023-01-15T10:58:10.659Z,8.94
2023-01-15T11:00:40.008Z,9.00
2023-01-15T11:03:23.179Z,9.06
2023-01-15T11:05:50.705Z,8.94
2023-01-15T11:12:01.641Z,8.96
2023-01-15T11:14:57.057Z,8.78
2023-01-15T11:17:46.934Z,8.77
2023-01-15T11:20:50.755Z,8.91
2023-01-15T11:23:22.063Z,9.03
2023-01-15T11:25:54.253Z,9.11
2023-01-15T11:28:43.552Z,9.23
2023-01-15T11:31:12.607Z,9.12
2023-01-15T11:33:40.300Z,9.27
2023-01-15T11:36:23.452Z,9.31
2023-01-15T11:38:51.846Z,9.17
2023-01-15T11:41:23.297Z,9.36
2023-01-15T11:44:16.947Z,9.38
2023-01-15T11:47:05.503Z,9.37
2023-01-15T11:49:50.799Z,9.41
2023-01-15T11:52:22.722Z,9.20
2023-01-15T11:54:53.053Z,8.91
2023-01-15T11:57:33.239Z,9.25
2023-01-15T12:00:00.481Z,9.43
2023-01-15T12:03:03.390Z,9.38
2023-01-15T12:05:34.595Z,9.53
2023-01-15T12:08:20.533Z,9.52
2023-01-15T12:11:21.108Z,9.46
2023-01-15T12:14:09.146Z,9.59
2023-01-15T12:16:57.817Z,9.43
2023-01-15T12:19:46.570Z,9.52
2023-01-15T12:22:39.272Z,9.54
2023-01-15T12:25:21.312Z,9.49
2023-01-15T12:28:07.987Z,9.50
2023-01-15T12:30:53.063Z,9.49
2023-01-15T12:33:39.705Z,9.64
2023-01-15T12:36:28.978Z,9.43
2023-01-15T12:39:11.914Z,9.42
2023-01-15T12:42:00.496Z,9.37
2023-01-15T12:45:00.987Z,9.35
2023-01-15T12:47:52.714Z,9.40
2023-01-15T12:50:27.443Z,9.21
2023-01-15T12:53:18.035Z,9.33
2023-01-15T12:55:54.090Z,9.98
2023-01-15T12:58:27.086Z,9.98
2023-01-15T13:01:20.403Z,9.96
2023-01-15T13:04:05.604Z,9.93
2023-01-15T13:06:34.790Z,9.87
2023-01-15T13:09:37.081Z,9.66
2023-01-15T13:12:10.268Z,9.72
2023-01-15T13:14:37.905Z,9.62
2023-01-15T13:17:16.998Z,9.51
2023-01-15T13:20:09.635Z,9.43
2023-01-15T13:22:50.654Z,9.32
2023-01-15T13:25:33.985Z,9.28
2023-01-15T13:28:13.206Z,9.04
2023-01-15T13:31:09.420Z,9.10
2023-01-15T13:33:49.010Z,9.02
2023-01-15T13:36:21.595Z,9.02
2023-01-15T13:38:54.868Z,8.94
2023-01-15T13:41:50.472Z,8.80
2023-01-15T13:44:27.085Z,8.85
2023-01-15T13:47:15.940Z,8.79
2023-01-15T13:49:55.325Z,8.78
2023-01-15T13:52:28.499Z,8.80
2023-01-15T13:55:23.745Z,8.75
2023-01-15T13:57:50.972Z,8.66
2023-01-15T14:00:39.463Z,8.56
2023-01-15T14:03:30.815Z,8.50
2023-01-15T14:06:00.807Z,8.47
2023-01-15T14:08:37.219Z,8.33
2023-01-15T14:11:04.529Z,8.41
2023-01-15T14:13:50.182Z,8.37
2023-01-15T14:16:24.195Z,8.34
2023-01-15T14:19:15.453Z,8.28
2023-01-15T14:22:21.855Z,8.16
2023-01-15T14:24:59.189Z,8.13
2023-01-15T14:27:35.707Z,8.14
2023-01-15T14:30:37.371Z,8.02
2023-01-15T14:33:29.821Z,7.95
2023-01-15T14:35:57.317Z,7.84
2023-01-15T14:38:27.521Z,7.74
2023-01-15T14:41:06.869Z,7.83
2023-01-15T14:43:41.578Z,7.56
2023-01-15T14:46:22.142Z,7.13
2023-01-15T14:48:49.076Z,7.47
2023-01-15T14:51:38.377Z,7.55
2023-01-15T14:54:11.829Z,7.48
2023-01-15T14:56:45.306Z,7.09
2023-01-15T14:59:26.409Z,7.18
2023-01-15T15:02:03.312Z,7.22
2023-01-15T15:04:41.249Z,7.15
2023-01-15T15:07:14.167Z,7.11
2023-01-15T15:10:13.984Z,7.05
2023-01-15T15:12:49.704Z,6.98
2023-01-15T15:15:25.471Z,6.85
2023-01-15T15:18:03.567Z,6.88
2023-01-15T15:20:42.545Z,6.97
2023-01-15T15:23:18.901Z,6.99
2023-01-15T15:25:57.588Z,6.92
2023-01-15T15:28:24.557Z,6.81
2023-01-15T15:30:52.482Z,6.68
2023-01-15T15:33:22.735Z,6.62
2023-01-15T15:35:53.469Z,6.53
2023-01-15T15:38:22.766Z,6.49
2023-01-15T15:40:55.216Z,6.41
2023-01-15T15:43:49.846Z,6.42
2023-01-15T15:46:49.887Z,6.11
2023-01-15T15:49:17.638Z,6.08
2023-01-15T15:51:48.817Z,6.03
2023-01-15T15:54:18.284Z,5.93
2023-01-15T15:57:14.779Z,5.75
2023-01-15T15:59:50.363Z,5.71
2023-01-15T16:02:25.611Z,5.64
2023-01-15T16:04:56.620Z,5.53
2023-01-15T16:07:26.720Z,5.47
2023-01-15T16:09:58.843Z,5.45
2023-01-15T16:12:30.118Z,5.22
2023-01-15T16:14:59.545Z,5.33
2023-01-15T16:17:27.210Z,5.14
2023-01-15T16:19:57.578Z,5.15
2023-01-15T16:22:56.128Z,5.12
2023-01-15T16:25:42.823Z,5.03
2023-01-15T16:28:28.015Z,4.90
2023-01-15T16:30:59.862Z,4.87
2023-01-15T16:33:27.368Z,4.85
2023-01-15T16:36:04.892Z,4.87
2023-01-15T16:38:34.516Z,4.52
2023-01-15T16:41:02.321Z,4.69
2023-01-15T16:43:30.910Z,4.59
2023-01-15T16:46:29.828Z,4.55
2023-01-15T16:49:24.216Z,4.48
2023-01-15T16:51:53.166Z,4.44
2023-01-15T16:54:32.101Z,4.38
2023-01-15T16:57:02.942Z,4.29
2023-01-15T16:59:30.347Z,4.31
2023-01-15T17:02:16.720Z,4.21
2023-01-15T17:04:48.209Z,4.14
2023-01-15T17:07:39.313Z,4.11
2023-01-15T17:10:19.745Z,4.06
2023-01-15T17:12:46.687Z,3.90
2023-01-15T17:15:16.707Z,3.90
2023-01-15T17:17:45.844Z,3.79
2023-01-15T17:20:14.107Z,3.37
2023-01-15T17:22:44.889Z,3.81
2023-01-15T17:25:22.807Z,3.75
2023-01-15T17:27:49.978Z,3.77
2023-01-15T17:30:17.645Z,3.69
2023-01-15T17:32:44.838Z,3.72
2023-01-15T17:35:30.252Z,3.65
2023-01-15T17:37:57.369Z,3.48
2023-01-15T17:40:24.931Z,3.41
2023-01-15T17:42:53.936Z,3.36
2023-01-15T17:45:29.121Z,3.40
2023-01-15T17:47:58.238Z,3.29
2023-01-15T17:50:25.908Z,3.25
2023-01-15T17:52:52.981Z,3.09
2023-01-15T17:55:51.576Z,3.16
2023-01-15T17:58:41.984Z,3.08
2023-01-15T18:01:57.177Z,2.97
2023-01-15T18:04:57.330Z,2.95
2023-01-15T18:07:28.055Z,2.84
2023-01-15T18:09:56.596Z,2.79
2023-01-15T18:12:23.899Z,2.78
2023-01-15T18:14:50.843Z,2.78
2023-01-15T18:17:17.743Z,2.80
2023-01-15T18:19:44.593Z,2.71
2023-01-15T18:22:13.802Z,2.72
2023-01-15T18:24:40.996Z,2.73
2023-01-15T18:27:07.999Z,2.66
2023-01-15T18:29:39.993Z,2.67
2023-01-15T18:32:10.261Z,2.64
2023-01-15T18:34:37.758Z,2.66
2023-01-15T18:37:04.989Z,2.58
2023-01-15T18:39:31.834Z,2.49
2023-01-15T18:41:58.762Z,2.45
2023-01-15T18:44:44.610Z,2.39
2023-01-15T18:47:14.505Z,2.47
2023-01-15T18:49:43.285Z,2.42
2023-01-15T18:52:30.948Z,2.19
2023-01-15T18:54:57.804Z,2.12
2023-01-15T18:57:24.982Z,2.10
2023-01-15T18:59:52.112Z,2.07
2023-01-15T19:02:21.151Z,1.95
2023-01-15T19:04:48.525Z,1.97
2023-01-15T19:07:16.174Z,2.03
2023-01-15T19:09:42.954Z,1.95
2023-01-15T19:12:09.936Z,2.03
2023-01-15T19:14:55.287Z,1.94
2023-01-15T19:17:43.329Z,1.91
2023-01-15T19:20:16.022Z,1.89
2023-01-15T19:23:05.209Z,1.91
2023-01-15T19:25:40.454Z,1.93
2023-01-15T19:28:09.740Z,1.22
2023-01-15T19:30:38.725Z,1.73
2023-01-15T19:33:09.057Z,1.82
2023-01-15T19:35:37.864Z,1.89
2023-01-15T19:38:08.402Z,1.78
2023-01-15T19:40:40.728Z,1.79
2023-01-15T19:43:26.228Z,1.71
2023-01-15T19:46:11.647Z,1.64
2023-01-15T19:48:57.083Z,1.61
2023-01-15T19:51:44.891Z,1.61
2023-01-15T19:54:11.874Z,1.61
2023-01-15T19:56:38.879Z,1.54
2023-01-15T19:59:06.480Z,1.54
2023-01-15T20:01:33.520Z,1.57
2023-01-15T20:04:00.432Z,1.55
2023-01-15T20:06:27.693Z,1.50
2023-01-15T20:08:57.978Z,1.51
2023-01-15T20:11:44.782Z,1.48
2023-01-15T20:14:11.668Z,1.52
2023-01-15T20:16:38.559Z,1.47
2023-01-15T20:19:05.411Z,1.43
2023-01-15T20:22:01.785Z,1.42
2023-01-15T20:24:28.651Z,1.36
2023-01-15T20:26:55.558Z,1.39
2023-01-15T20:29:22.467Z,1.39
2023-01-15T20:31:49.520Z,1.40
2023-01-15T20:34:16.451Z,1.25
2023-01-15T20:36:43.418Z,1.24
2023-01-15T20:39:10.497Z,1.30
2023-01-15T20:41:56.115Z,1.29
2023-01-15T20:44:41.694Z,1.25
2023-01-15T20:47:28.501Z,1.20
2023-01-15T20:49:55.322Z,1.17
2023-01-15T20:52:22.484Z,1.13
2023-01-15T20:54:50.835Z,1.02
2023-01-15T20:57:17.692Z,1.09
2023-01-15T20:59:44.532Z,1.13
2023-01-15T21:02:12.271Z,1.10
2023-01-15T21:04:39.127Z,1.02
2023-01-15T21:07:06.236Z,0.97
2023-01-15T21:09:33.213Z,0.90
2023-01-15T21:12:00.088Z,1.01
2023-01-15T21:14:26.928Z,1.02
2023-01-15T21:16:53.937Z,1.13
2023-01-15T21:19:23.287Z,1.06
2023-01-15T21:21:50.340Z,1.09
2023-01-15T21:24:17.218Z,1.10
2023-01-15T21:26:45.834Z,1.02
2023-01-15T21:29:13.779Z,1.03
2023-01-15T21:31:43.202Z,0.83
2023-01-15T21:34:10.196Z,1.10
2023-01-15T21:36:37.804Z,1.10
2023-01-15T21:39:04.756Z,1.07
2023-01-15T21:41:50.192Z,1.11
2023-01-15T21:44:31.910Z,1.10
2023-01-15T21:47:00.409Z,0.97
2023-01-15T21:49:27.733Z,0.96
2023-01-15T21:51:54.922Z,1.03
2023-01-15T21:54:21.804Z,0.92
2023-01-15T21:56:48.803Z,0.92
2023-01-15T21:59:15.656Z,0.78
2023-01-15T22:01:42.584Z,0.82
2023-01-15T22:04:09.459Z,0.78
2023-01-15T22:06:37.982Z,0.77
2023-01-15T22:09:05.074Z,0.75
2023-01-15T22:11:58.259Z,0.83
2023-01-15T22:14:28.033Z,0.70
2023-01-15T22:16:56.709Z,0.69
2023-01-15T22:19:27.903Z,0.40
2023-01-15T22:21:58.392Z,0.62
2023-01-15T22:24:30.290Z,0.61
2023-01-15T22:26:58.147Z,0.63
2023-01-15T22:29:31.036Z,0.59
2023-01-15T22:31:59.165Z,0.58
2023-01-15T22:34:28.276Z,0.62
2023-01-15T22:36:55.860Z,0.56
2023-01-15T22:39:24.243Z,0.63
2023-01-15T22:42:10.074Z,0.54
2023-01-15T22:44:37.046Z,0.52
2023-01-15T22:47:05.047Z,0.51
2023-01-15T22:49:32.359Z,0.55
2023-01-15T22:51:59.269Z,0.50
2023-01-15T22:54:26.098Z,0.53
2023-01-15T22:56:53.038Z,0.54
2023-01-15T22:59:20.127Z,0.43
2023-01-15T23:01:47.467Z,0.45
2023-01-15T23:04:16.802Z,0.37
2023-01-15T23:06:44.290Z,0.32
2023-01-15T23:09:12.094Z,0.31
2023-01-15T23:11:39.775Z,0.37
2023-01-15T23:14:07.939Z,0.41
2023-01-15T23:16:35.260Z,0.30
2023-01-15T23:19:02.806Z,0.44
2023-01-15T23:21:32.974Z,0.43
2023-01-15T23:24:01.773Z,0.32
2023-01-15T23:26:33.233Z,0.34
2023-01-15T23:29:00.669Z,0.36
2023-01-15T23:31:28.395Z,0.22
2023-01-15T23:33:55.357Z,0.31
2023-01-15T23:36:22.390Z,0.25
2023-01-15T23:38:49.495Z,0.30
2023-01-15T23:41:19.129Z,0.24
2023-01-15T23:44:04.430Z,0.32
2023-01-15T23:46:37.537Z,0.31
2023-01-15T23:49:07.386Z,0.15
2023-01-15T23:51:35.800Z,0.14
2023-01-15T23:54:02.890Z,0.07
2023-01-15T23:56:30.893Z,-0.06
2023-01-15T23:58:58.353Z,-0.01
